createdAt,value
2018-01-31T01:52:20.512Z,2.25
2018-01-31T01:52:21.005Z,2.45
2018-01-31T01:53:09.432Z,2.52
2018-01-31T01:54:15.623Z,2.55
2018-01-31T01:55:21.526Z,2.56
2018-01-31T01:56:27.718Z,2.64
2018-01-31T01:57:33.859Z,2.64
2018-01-31T01:58:39.939Z,2.66
2018-01-31T01:59:46.055Z,2.71
2018-01-31T02:00:52.192Z,2.69
2018-01-31T02:01:58.109Z,2.71
2018-01-31T02:03:04.599Z,2.71
2018-01-31T02:04:10.574Z,2.71
2018-01-31T02:05:19.302Z,2.67
2018-01-31T02:06:24.863Z,2.68
2018-01-31T02:07:30.805Z,2.68
2018-01-31T02:08:36.951Z,2.68
2018-01-31T02:09:43.112Z,2.73
2018-01-31T02:10:49.264Z,2.76
2018-01-31T02:11:55.358Z,2.77
2018-01-31T02:13:01.507Z,2.73
2018-01-31T02:14:07.684Z,2.78
2018-01-31T02:15:13.574Z,2.72
2018-01-31T02:16:19.748Z,2.71
2018-01-31T02:17:25.916Z,2.73
2018-01-31T02:18:32.042Z,2.82
2018-01-31T02:19:38.224Z,2.83
2018-01-31T02:20:44.459Z,2.77
2018-01-31T02:21:50.620Z,2.93
2018-01-31T02:22:56.774Z,2.92
2018-01-31T02:24:02.922Z,2.86
2018-01-31T02:25:09.100Z,2.84
2018-01-31T02:26:15.293Z,2.88
2018-01-31T02:27:22.332Z,2.94
2018-01-31T02:28:28.501Z,2.93
2018-01-31T02:29:34.681Z,2.94
2018-01-31T02:30:40.856Z,2.82
2018-01-31T02:31:46.705Z,2.77
2018-01-31T02:32:52.936Z,2.79
2018-01-31T02:33:58.871Z,2.79
2018-01-31T02:35:08.848Z,2.81
2018-01-31T02:36:15.040Z,2.78
2018-01-31T02:37:20.961Z,2.71
2018-01-31T02:38:38.152Z,2.86
2018-01-31T02:39:55.190Z,2.92
2018-01-31T02:41:01.086Z,3.01
2018-01-31T02:42:07.203Z,3.06
2018-01-31T02:43:13.310Z,3.00
2018-01-31T02:44:19.466Z,3.06
2018-01-31T02:45:25.601Z,3.03
2018-01-31T02:46:31.720Z,2.98
2018-01-31T02:47:37.940Z,2.99
2018-01-31T02:48:44.290Z,3.01
2018-01-31T02:49:50.391Z,3.16
2018-01-31T02:50:56.570Z,3.14
2018-01-31T02:52:02.703Z,3.22
2018-01-31T02:53:08.872Z,3.22
2018-01-31T02:54:14.996Z,3.23
2018-01-31T02:55:21.096Z,3.21
2018-01-31T02:56:27.340Z,3.14
2018-01-31T02:57:38.619Z,3.19
2018-01-31T02:58:44.750Z,3.21
2018-01-31T02:59:50.916Z,3.29
2018-01-31T03:01:00.447Z,3.32
2018-01-31T03:02:06.621Z,3.35
2018-01-31T03:03:12.785Z,3.38
2018-01-31T03:04:19.846Z,3.29
2018-01-31T03:05:25.948Z,3.15
2018-01-31T03:06:32.063Z,2.99
2018-01-31T03:07:38.209Z,3.07
2018-01-31T03:08:45.587Z,3.05
2018-01-31T03:09:51.753Z,3.04
2018-01-31T03:10:57.895Z,3.04
2018-01-31T03:12:04.100Z,3.05
2018-01-31T03:13:10.237Z,3.24
2018-01-31T03:14:16.427Z,3.22
2018-01-31T03:15:23.518Z,3.22
2018-01-31T03:16:29.660Z,3.16
2018-01-31T03:17:35.804Z,3.21
2018-01-31T03:18:42.031Z,3.18
2018-01-31T03:19:48.842Z,3.11
2018-01-31T03:20:54.958Z,3.02
2018-01-31T03:22:01.081Z,3.06
2018-01-31T03:23:07.245Z,3.10
2018-01-31T03:24:13.422Z,3.08
2018-01-31T03:25:19.524Z,3.21
2018-01-31T03:26:25.624Z,3.16
2018-01-31T03:27:31.835Z,3.17
2018-01-31T03:28:37.952Z,3.19
2018-01-31T03:29:48.947Z,3.21
2018-01-31T03:30:54.859Z,3.06
2018-01-31T03:32:00.955Z,2.95
2018-01-31T03:33:06.399Z,2.95
2018-01-31T03:34:12.308Z,3.03
2018-01-31T03:35:19.428Z,3.12
2018-01-31T03:36:25.565Z,3.11
2018-01-31T03:37:34.283Z,3.14
2018-01-31T03:38:40.175Z,3.17
2018-01-31T03:39:46.279Z,3.13
2018-01-31T03:40:52.156Z,3.23
2018-01-31T03:41:58.019Z,3.29
2018-01-31T03:43:03.514Z,3.39
2018-01-31T03:44:09.412Z,3.35
2018-01-31T03:45:15.543Z,3.32
2018-01-31T03:46:21.733Z,3.37
2018-01-31T03:47:27.936Z,3.26
2018-01-31T03:48:34.051Z,3.34
2018-01-31T03:49:40.212Z,3.34
2018-01-31T03:50:46.311Z,3.28
2018-01-31T03:51:52.466Z,3.33
2018-01-31T03:52:58.413Z,3.39
2018-01-31T03:54:04.531Z,3.43
2018-01-31T03:55:10.729Z,3.45
2018-01-31T03:56:16.887Z,3.47
2018-01-31T03:57:23.053Z,3.44
2018-01-31T03:58:29.207Z,3.45
2018-01-31T03:59:35.616Z,3.52
2018-01-31T04:00:41.069Z,3.61
2018-01-31T04:01:46.898Z,3.66
2018-01-31T04:02:53.032Z,3.68
2018-01-31T04:03:59.189Z,3.71
2018-01-31T04:05:05.051Z,3.67
2018-01-31T04:06:11.266Z,3.78
2018-01-31T04:07:17.413Z,3.82
2018-01-31T04:08:23.542Z,3.84
2018-01-31T04:09:30.575Z,3.93
2018-01-31T04:10:36.745Z,3.94
2018-01-31T04:11:42.897Z,3.98
2018-01-31T04:12:54.166Z,4.04
2018-01-31T04:14:00.310Z,4.11
2018-01-31T04:15:06.457Z,4.12
2018-01-31T04:16:11.643Z,4.16
2018-01-31T04:17:17.804Z,4.16
2018-01-31T04:18:24.048Z,4.17
2018-01-31T04:19:30.202Z,4.23
2018-01-31T04:20:36.356Z,4.22
2018-01-31T04:21:42.547Z,4.28
2018-01-31T04:22:48.739Z,4.32
2018-01-31T04:23:54.948Z,4.39
2018-01-31T04:25:00.828Z,4.35
2018-01-31T04:26:06.992Z,4.31
2018-01-31T04:27:13.112Z,4.36
2018-01-31T04:28:19.284Z,4.36
2018-01-31T04:29:25.435Z,4.39
2018-01-31T04:30:31.649Z,4.40
2018-01-31T04:31:37.774Z,4.41
2018-01-31T04:32:43.934Z,4.45
2018-01-31T04:33:50.777Z,4.47
2018-01-31T04:34:56.916Z,4.51
2018-01-31T04:36:07.876Z,4.53
2018-01-31T04:37:14.027Z,4.50
2018-01-31T04:38:20.219Z,4.51
2018-01-31T04:39:26.416Z,4.52
2018-01-31T04:40:32.590Z,4.58
2018-01-31T04:41:38.397Z,4.60
2018-01-31T04:42:44.652Z,4.58
2018-01-31T04:43:52.052Z,4.64
2018-01-31T04:45:03.924Z,4.63
2018-01-31T04:46:10.085Z,4.65
2018-01-31T04:47:16.256Z,4.56
2018-01-31T04:48:22.446Z,4.58
2018-01-31T04:49:28.609Z,4.60
2018-01-31T04:50:34.404Z,4.60
2018-01-31T04:51:40.608Z,4.62
2018-01-31T04:52:47.408Z,4.62
2018-01-31T04:53:54.128Z,4.57
2018-01-31T04:55:00.383Z,4.61
2018-01-31T04:56:07.181Z,4.56
2018-01-31T04:57:13.519Z,4.58
2018-01-31T04:58:19.851Z,4.61
2018-01-31T04:59:26.064Z,4.60
2018-01-31T05:00:32.678Z,4.55
2018-01-31T05:01:39.056Z,4.53
2018-01-31T05:02:45.426Z,4.50
2018-01-31T05:03:51.612Z,4.51
2018-01-31T05:04:57.944Z,4.57
2018-01-31T05:06:04.233Z,4.61
2018-01-31T05:07:10.663Z,4.63
2018-01-31T05:08:16.905Z,4.66
2018-01-31T05:09:23.170Z,4.67
2018-01-31T05:10:29.380Z,4.61
2018-01-31T05:11:35.601Z,4.66
2018-01-31T05:12:41.937Z,4.67
2018-01-31T05:13:48.909Z,4.68
2018-01-31T05:14:55.239Z,4.71
2018-01-31T05:16:01.456Z,4.76
2018-01-31T05:17:07.068Z,4.77
2018-01-31T05:18:13.508Z,4.76
2018-01-31T05:19:19.721Z,4.74
2018-01-31T05:20:25.885Z,4.76
2018-01-31T05:21:32.076Z,4.74
2018-01-31T05:22:39.051Z,4.70
2018-01-31T05:23:45.211Z,4.67
2018-01-31T05:24:51.380Z,4.60
2018-01-31T05:25:57.859Z,4.64
2018-01-31T05:27:03.843Z,4.66
2018-01-31T05:28:10.052Z,4.59
2018-01-31T05:29:16.168Z,4.60
2018-01-31T05:30:22.356Z,4.59
2018-01-31T05:31:28.494Z,4.65
2018-01-31T05:32:34.620Z,4.68
2018-01-31T05:33:40.748Z,4.74
2018-01-31T05:34:46.601Z,4.77
2018-01-31T05:35:52.757Z,4.81
2018-01-31T05:36:59.052Z,4.85
2018-01-31T05:38:05.224Z,4.88
2018-01-31T05:39:11.410Z,4.89
2018-01-31T05:40:17.546Z,4.91
2018-01-31T05:41:23.753Z,4.98
2018-01-31T05:42:32.556Z,4.98
2018-01-31T05:43:38.822Z,4.82
2018-01-31T05:44:45.017Z,4.76
2018-01-31T05:45:51.165Z,4.73
2018-01-31T05:46:57.302Z,4.77
2018-01-31T05:48:03.491Z,4.76
2018-01-31T05:49:09.698Z,4.75
2018-01-31T05:50:15.847Z,4.77
2018-01-31T05:51:21.993Z,4.78
2018-01-31T05:52:28.149Z,4.84
2018-01-31T05:53:34.308Z,4.84
2018-01-31T05:54:40.470Z,4.79
2018-01-31T05:55:46.604Z,4.85
2018-01-31T05:56:53.314Z,4.88
2018-01-31T05:57:59.488Z,4.89
2018-01-31T05:59:05.664Z,4.90
2018-01-31T06:00:11.962Z,4.93
2018-01-31T06:01:18.120Z,4.90
2018-01-31T06:02:24.116Z,4.91
2018-01-31T06:03:30.266Z,4.88
2018-01-31T06:04:36.048Z,4.92
2018-01-31T06:05:42.239Z,4.95
2018-01-31T06:06:48.395Z,4.95
2018-01-31T06:07:54.500Z,4.96
2018-01-31T06:09:00.369Z,4.92
2018-01-31T06:10:06.493Z,4.97
2018-01-31T06:11:12.658Z,4.92
2018-01-31T06:12:18.563Z,4.94
2018-01-31T06:13:24.676Z,4.92
2018-01-31T06:14:30.832Z,4.91
2018-01-31T06:15:36.995Z,4.92
2018-01-31T06:16:43.111Z,4.95
2018-01-31T06:17:49.806Z,4.95
2018-01-31T06:18:57.380Z,5.03
2018-01-31T06:20:04.411Z,5.05
2018-01-31T06:21:11.772Z,5.08
2018-01-31T06:22:20.484Z,5.01
2018-01-31T06:23:28.930Z,4.99
2018-01-31T06:24:35.739Z,5.03
2018-01-31T06:25:45.403Z,5.00
2018-01-31T06:26:53.481Z,5.03
2018-01-31T06:28:00.627Z,5.05
2018-01-31T06:29:07.366Z,5.06
2018-01-31T06:30:14.410Z,5.06
2018-01-31T06:31:22.297Z,5.05
2018-01-31T06:32:29.331Z,5.03
2018-01-31T06:33:36.964Z,5.06
2018-01-31T06:34:45.084Z,5.11
2018-01-31T06:35:51.820Z,5.11
2018-01-31T06:36:57.960Z,5.12
2018-01-31T06:38:03.902Z,5.13
2018-01-31T06:39:10.123Z,5.14
2018-01-31T06:40:16.308Z,5.15
2018-01-31T06:41:23.569Z,5.15
2018-01-31T06:42:29.755Z,5.19
2018-01-31T06:43:35.949Z,5.26
2018-01-31T06:44:42.368Z,5.27
2018-01-31T06:45:48.662Z,5.20
2018-01-31T06:46:54.863Z,5.20
2018-01-31T06:48:01.027Z,5.26
2018-01-31T06:49:07.200Z,5.33
2018-01-31T06:50:13.024Z,5.36
2018-01-31T06:51:19.288Z,5.33
2018-01-31T06:52:25.455Z,5.34
2018-01-31T06:53:31.820Z,5.44
2018-01-31T06:54:38.002Z,5.39
2018-01-31T06:55:44.120Z,5.41
2018-01-31T06:56:50.261Z,5.40
2018-01-31T06:57:57.484Z,5.35
2018-01-31T06:59:02.911Z,5.36
2018-01-31T07:00:09.066Z,5.41
2018-01-31T07:01:15.377Z,5.42
2018-01-31T07:02:27.721Z,5.40
2018-01-31T07:03:33.919Z,5.33
2018-01-31T07:04:40.154Z,5.33
2018-01-31T07:05:46.305Z,5.33
2018-01-31T07:06:52.511Z,5.31
2018-01-31T07:07:58.717Z,5.31
2018-01-31T07:09:04.223Z,5.34
2018-01-31T07:10:10.202Z,5.33
2018-01-31T07:11:16.371Z,5.38
2018-01-31T07:12:22.592Z,5.42
2018-01-31T07:13:28.797Z,5.45
2018-01-31T07:14:34.972Z,5.42
2018-01-31T07:15:41.370Z,5.40
2018-01-31T07:16:47.597Z,5.42
2018-01-31T07:17:53.732Z,5.46
2018-01-31T07:18:59.904Z,5.52
2018-01-31T07:20:05.382Z,5.58
2018-01-31T07:21:11.257Z,5.62
2018-01-31T07:22:17.783Z,5.62
2018-01-31T07:23:23.950Z,5.56
2018-01-31T07:24:30.144Z,5.56
2018-01-31T07:25:36.323Z,5.61
2018-01-31T07:26:41.824Z,5.68
2018-01-31T07:27:48.008Z,5.74
2018-01-31T07:28:54.168Z,5.77
2018-01-31T07:30:00.344Z,5.76
2018-01-31T07:31:06.534Z,5.76
2018-01-31T07:32:12.676Z,5.67
2018-01-31T07:33:18.844Z,5.76
2018-01-31T07:34:25.088Z,5.74
2018-01-31T07:35:31.240Z,5.76
2018-01-31T07:36:37.391Z,5.80
2018-01-31T07:37:43.543Z,5.85
2018-01-31T07:38:49.709Z,5.91
2018-01-31T07:39:55.954Z,5.90
2018-01-31T07:41:02.132Z,5.89
2018-01-31T07:42:12.802Z,5.83
2018-01-31T07:43:21.844Z,5.81
2018-01-31T07:44:27.994Z,5.88
2018-01-31T07:45:34.286Z,5.98
2018-01-31T07:46:40.163Z,6.02
2018-01-31T07:47:46.328Z,6.00
2018-01-31T07:48:52.478Z,5.97
2018-01-31T07:49:58.734Z,5.91
2018-01-31T07:51:04.910Z,5.95
2018-01-31T07:52:11.239Z,6.00
2018-01-31T07:53:17.337Z,6.06
2018-01-31T07:54:23.213Z,6.06
2018-01-31T07:55:29.375Z,6.07
2018-01-31T07:56:35.654Z,6.08
2018-01-31T07:57:41.920Z,6.05
2018-01-31T07:58:48.088Z,6.11
2018-01-31T07:59:54.273Z,6.16
2018-01-31T08:01:00.445Z,6.14
2018-01-31T08:02:06.400Z,6.13
2018-01-31T08:03:12.557Z,6.11
2018-01-31T08:04:18.731Z,6.18
2018-01-31T08:05:24.184Z,6.20
2018-01-31T08:06:30.337Z,6.31
2018-01-31T08:07:36.319Z,6.34
2018-01-31T08:08:42.164Z,6.36
2018-01-31T08:09:49.298Z,6.32
2018-01-31T08:10:55.487Z,6.31
2018-01-31T08:12:01.660Z,6.32
2018-01-31T08:13:07.853Z,6.43
2018-01-31T08:14:13.982Z,6.49
2018-01-31T08:15:20.212Z,6.55
2018-01-31T08:16:26.386Z,6.55
2018-01-31T08:17:32.542Z,6.53
2018-01-31T08:18:38.797Z,6.43
2018-01-31T08:19:44.972Z,6.43
2018-01-31T08:20:52.960Z,6.37
2018-01-31T08:21:59.125Z,6.40
2018-01-31T08:23:05.316Z,6.41
2018-01-31T08:24:10.838Z,6.46
2018-01-31T08:25:16.362Z,6.46
2018-01-31T08:26:22.540Z,6.47
2018-01-31T08:27:28.647Z,6.44
2018-01-31T08:28:34.444Z,6.45
2018-01-31T08:29:40.362Z,6.46
2018-01-31T08:30:46.248Z,6.51
2018-01-31T08:31:52.439Z,6.47
2018-01-31T08:32:58.663Z,6.51
2018-01-31T08:34:04.788Z,6.51
2018-01-31T08:35:10.969Z,6.50
2018-01-31T08:36:17.128Z,6.44
2018-01-31T08:37:23.258Z,6.45
2018-01-31T08:38:29.439Z,6.44
2018-01-31T08:39:35.594Z,6.46
2018-01-31T08:40:45.630Z,6.48
2018-01-31T08:41:51.872Z,6.50
2018-01-31T08:42:58.339Z,6.49
2018-01-31T08:44:04.541Z,6.54
2018-01-31T08:45:11.373Z,6.54
2018-01-31T08:46:17.632Z,6.52
2018-01-31T08:47:23.819Z,6.51
2018-01-31T08:48:30.032Z,6.54
2018-01-31T08:49:36.174Z,6.54
2018-01-31T08:50:41.660Z,6.53
2018-01-31T08:51:47.575Z,6.52
2018-01-31T08:52:53.785Z,6.50
2018-01-31T08:53:59.272Z,6.56
2018-01-31T08:55:04.739Z,6.57
2018-01-31T08:56:10.896Z,6.56
2018-01-31T08:57:17.029Z,6.62
2018-01-31T08:58:23.149Z,6.63
2018-01-31T08:59:29.304Z,6.55
2018-01-31T09:00:35.188Z,6.60
2018-01-31T09:01:40.664Z,6.63
2018-01-31T09:02:46.815Z,6.67
2018-01-31T09:03:52.988Z,6.65
2018-01-31T09:04:58.824Z,6.68
2018-01-31T09:06:04.364Z,6.73
2018-01-31T09:07:10.208Z,6.74
2018-01-31T09:08:16.356Z,6.85
2018-01-31T09:09:23.355Z,6.93
2018-01-31T09:10:29.500Z,6.94
2018-01-31T09:11:35.697Z,6.95
2018-01-31T09:12:41.640Z,6.96
2018-01-31T09:13:47.968Z,6.97
2018-01-31T09:14:54.156Z,6.95
2018-01-31T09:16:00.339Z,7.08
2018-01-31T09:17:06.573Z,7.05
2018-01-31T09:18:12.756Z,7.05
2018-01-31T09:19:18.951Z,7.05
2018-01-31T09:20:25.080Z,7.11
2018-01-31T09:21:30.569Z,7.07
2018-01-31T09:22:36.897Z,7.09
2018-01-31T09:23:42.679Z,7.11
2018-01-31T09:24:48.548Z,7.15
2018-01-31T09:25:54.747Z,7.14
2018-01-31T09:27:00.929Z,7.20
2018-01-31T09:28:07.111Z,7.22
2018-01-31T09:29:13.316Z,7.25
2018-01-31T09:30:19.524Z,7.25
2018-01-31T09:31:25.698Z,7.27
2018-01-31T09:32:32.022Z,7.23
2018-01-31T09:33:38.236Z,7.26
2018-01-31T09:34:44.367Z,7.32
2018-01-31T09:35:50.212Z,7.39
2018-01-31T09:36:56.385Z,7.35
2018-01-31T09:38:02.576Z,7.39
2018-01-31T09:39:08.788Z,7.38
2018-01-31T09:40:14.915Z,7.33
2018-01-31T09:41:21.143Z,7.40
2018-01-31T09:42:27.301Z,7.41
2018-01-31T09:43:33.518Z,7.47
2018-01-31T09:44:39.433Z,7.46
2018-01-31T09:45:44.915Z,7.45
2018-01-31T09:46:51.828Z,7.50
2018-01-31T09:47:57.627Z,7.50
2018-01-31T09:49:05.503Z,7.50
2018-01-31T09:50:11.600Z,7.54
2018-01-31T09:51:19.159Z,7.62
2018-01-31T09:52:27.009Z,7.58
2018-01-31T09:53:31.829Z,7.56
2018-01-31T09:54:38.224Z,7.66
2018-01-31T09:55:44.171Z,7.65
2018-01-31T09:56:49.624Z,7.73
2018-01-31T09:57:55.857Z,7.81
2018-01-31T09:59:02.041Z,7.84
2018-01-31T10:00:07.847Z,7.80
2018-01-31T10:01:14.024Z,7.77
2018-01-31T10:02:20.301Z,7.88
2018-01-31T10:03:26.473Z,7.99
2018-01-31T10:04:32.636Z,8.01
2018-01-31T10:05:38.784Z,8.02
2018-01-31T10:06:44.919Z,7.98
2018-01-31T10:07:51.053Z,7.98
2018-01-31T10:08:57.259Z,7.98
2018-01-31T10:10:03.403Z,8.00
2018-01-31T10:11:09.628Z,8.05
2018-01-31T10:12:15.818Z,8.00
2018-01-31T10:13:21.986Z,8.02
2018-01-31T10:14:28.186Z,7.99
2018-01-31T10:15:34.355Z,7.93
2018-01-31T10:16:40.572Z,7.97
2018-01-31T10:17:46.725Z,7.99
2018-01-31T10:18:52.902Z,7.85
2018-01-31T10:19:59.044Z,7.91
2018-01-31T10:21:05.226Z,7.93
2018-01-31T10:22:11.391Z,7.90
2018-01-31T10:23:17.569Z,8.01
2018-01-31T10:24:23.785Z,8.04
2018-01-31T10:25:29.953Z,8.01
2018-01-31T10:26:36.146Z,8.03
2018-01-31T10:27:42.292Z,8.08
2018-01-31T10:28:48.477Z,8.15
2018-01-31T10:29:54.604Z,8.14
2018-01-31T10:31:00.834Z,8.17
2018-01-31T10:32:07.048Z,8.20
2018-01-31T10:33:13.260Z,8.21
2018-01-31T10:34:19.133Z,8.20
2018-01-31T10:35:25.330Z,8.27
2018-01-31T10:36:31.531Z,8.30
2018-01-31T10:37:37.781Z,8.26
2018-01-31T10:38:43.915Z,8.23
2018-01-31T10:39:50.953Z,8.22
2018-01-31T10:40:57.890Z,8.19
2018-01-31T10:42:04.075Z,8.21
2018-01-31T10:43:10.311Z,8.20
2018-01-31T10:44:16.456Z,8.28
2018-01-31T10:45:22.212Z,8.30
2018-01-31T10:46:28.136Z,8.27
2018-01-31T10:47:34.303Z,8.29
2018-01-31T10:48:40.518Z,8.29
2018-01-31T10:49:46.718Z,8.31
2018-01-31T10:50:52.959Z,8.37
2018-01-31T10:51:59.168Z,8.35
2018-01-31T10:53:05.328Z,8.25
2018-01-31T10:57:28.722Z,8.31
2018-01-31T10:57:30.361Z,8.45
2018-01-31T10:58:44.712Z,8.42
2018-01-31T10:59:50.853Z,8.48
2018-01-31T11:00:57.020Z,8.51
2018-01-31T11:02:03.144Z,8.51
2018-01-31T11:03:10.272Z,8.50
2018-01-31T11:04:16.540Z,8.48
2018-01-31T11:05:21.976Z,8.56
2018-01-31T11:06:29.719Z,8.57
2018-01-31T11:07:39.756Z,8.58
2018-01-31T11:08:45.765Z,8.62
2018-01-31T11:09:51.923Z,8.59
2018-01-31T11:10:58.006Z,8.55
2018-01-31T11:12:04.217Z,8.62
2018-01-31T11:13:11.511Z,8.66
2018-01-31T11:14:17.699Z,8.73
2018-01-31T11:15:24.787Z,8.74
2018-01-31T11:16:31.029Z,8.77
2018-01-31T11:17:36.860Z,8.76
2018-01-31T11:18:43.027Z,8.81
2018-01-31T11:19:49.085Z,8.81
2018-01-31T11:20:55.248Z,8.84
2018-01-31T11:22:01.916Z,8.87
2018-01-31T11:23:08.612Z,8.87
2018-01-31T11:24:15.246Z,8.95
2018-01-31T11:25:22.316Z,8.96
2018-01-31T11:26:28.544Z,9.00
2018-01-31T11:27:35.539Z,9.02
2018-01-31T11:28:42.095Z,9.07
2018-01-31T11:29:49.208Z,9.11
2018-01-31T11:30:56.964Z,9.05
2018-01-31T11:32:03.319Z,9.11
2018-01-31T11:33:10.510Z,9.16
2018-01-31T11:34:16.968Z,9.17
2018-01-31T11:35:23.333Z,9.16
2018-01-31T11:36:30.096Z,9.17
2018-01-31T11:37:36.648Z,9.20
2018-01-31T11:38:42.807Z,9.14
2018-01-31T11:39:49.310Z,9.17
2018-01-31T11:40:55.738Z,9.20
2018-01-31T11:42:01.775Z,9.21
2018-01-31T11:43:08.116Z,9.27
2018-01-31T11:44:17.838Z,9.28
2018-01-31T11:45:24.708Z,9.26
2018-01-31T11:46:30.966Z,9.27
2018-01-31T11:47:37.939Z,9.21
2018-01-31T11:48:44.841Z,9.18
2018-01-31T11:49:51.668Z,9.19
2018-01-31T11:50:58.028Z,9.18
2018-01-31T11:52:04.367Z,9.17
2018-01-31T11:53:10.567Z,9.26
2018-01-31T11:54:16.984Z,9.29
2018-01-31T11:55:25.361Z,9.28
2018-01-31T11:56:31.435Z,9.30
2018-01-31T11:57:37.668Z,9.27
2018-01-31T11:58:43.614Z,9.30
2018-01-31T11:59:49.571Z,9.26
2018-01-31T12:00:55.108Z,9.22
2018-01-31T12:02:01.009Z,9.21
2018-01-31T12:03:08.631Z,9.23
2018-01-31T12:04:14.556Z,9.26
2018-01-31T12:05:20.533Z,9.28
2018-01-31T12:06:26.424Z,9.32
2018-01-31T12:07:32.308Z,9.29
2018-01-31T12:08:38.217Z,9.26
2018-01-31T12:09:44.562Z,9.21
2018-01-31T12:10:50.143Z,9.28
2018-01-31T12:11:56.030Z,9.21
2018-01-31T12:14:44.481Z,9.26
2018-01-31T12:16:12.220Z,9.31
2018-01-31T12:17:31.420Z,9.33
2018-01-31T12:18:48.353Z,9.31
2018-01-31T12:20:14.227Z,9.25
2018-01-31T12:21:31.156Z,9.25
2018-01-31T12:22:48.027Z,9.21
2018-01-31T12:24:05.055Z,9.24
2018-01-31T12:25:22.011Z,9.28
2018-01-31T12:26:39.547Z,9.25
2018-01-31T12:27:56.592Z,9.19
2018-01-31T12:29:13.602Z,9.20
2018-01-31T12:30:30.445Z,9.25
2018-01-31T12:31:52.014Z,9.30
2018-01-31T12:33:08.963Z,9.34
2018-01-31T12:34:25.933Z,9.38
2018-01-31T12:35:42.905Z,9.39
2018-01-31T12:36:59.766Z,9.35
2018-01-31T12:38:16.677Z,9.36
2018-01-31T12:39:21.323Z,9.34
2018-01-31T12:40:26.004Z,9.32
2018-01-31T12:41:30.721Z,9.32
2018-01-31T12:42:35.396Z,9.35
2018-01-31T12:43:40.263Z,9.34
2018-01-31T12:44:45.427Z,9.28
2018-01-31T12:45:50.384Z,9.26
2018-01-31T12:47:07.412Z,9.28
2018-01-31T12:48:24.579Z,9.30
2018-01-31T12:49:41.541Z,9.27
2018-01-31T12:50:59.408Z,9.25
2018-01-31T12:52:28.330Z,9.28
2018-01-31T12:53:39.968Z,9.27
2018-01-31T12:56:00.044Z,9.17
2018-01-31T12:57:32.486Z,9.16
2018-01-31T12:58:49.499Z,9.13
2018-01-31T13:00:06.854Z,9.09
2018-01-31T13:01:23.810Z,9.15
2018-01-31T13:04:20.914Z,9.20
2018-01-31T13:07:16.462Z,9.16
2018-01-31T13:08:33.149Z,9.14
2018-01-31T13:09:49.745Z,9.11
2018-01-31T13:11:06.503Z,9.14
2018-01-31T13:12:23.381Z,9.07
2018-01-31T13:13:40.264Z,9.12
2018-01-31T13:14:59.917Z,9.17
2018-01-31T13:16:20.313Z,9.10
2018-01-31T13:19:14.440Z,9.19
2018-01-31T13:20:31.262Z,9.15
2018-01-31T13:21:48.439Z,9.17
2018-01-31T13:23:05.152Z,9.15
2018-01-31T13:24:21.953Z,9.14
2018-01-31T13:25:39.061Z,9.11
2018-01-31T13:26:55.963Z,9.14
2018-01-31T13:28:18.227Z,9.05
2018-01-31T13:29:26.532Z,9.10
2018-01-31T13:30:43.617Z,9.18
2018-01-31T13:32:01.074Z,9.18
2018-01-31T13:33:23.373Z,9.09
2018-01-31T13:34:40.197Z,9.11
2018-01-31T13:35:57.048Z,9.07
2018-01-31T13:38:56.843Z,9.05
2018-01-31T13:40:13.431Z,9.09
2018-01-31T13:41:30.137Z,9.15
2018-01-31T13:42:49.227Z,9.12
2018-01-31T13:44:05.023Z,9.14
2018-01-31T13:45:21.776Z,9.08
2018-01-31T13:46:40.942Z,9.00
2018-01-31T13:47:57.771Z,8.98
2018-01-31T13:49:14.879Z,8.99
2018-01-31T13:50:32.408Z,9.01
2018-01-31T13:51:49.251Z,8.98
2018-01-31T13:53:07.029Z,9.04
2018-01-31T13:54:23.625Z,9.06
2018-01-31T13:55:40.609Z,9.11
2018-01-31T13:56:57.300Z,9.14
2018-01-31T13:58:14.100Z,9.08
2018-01-31T13:59:30.838Z,9.10
2018-01-31T14:00:47.685Z,9.16
2018-01-31T14:02:04.440Z,9.17
2018-01-31T14:03:21.482Z,9.19
2018-01-31T14:04:38.318Z,9.20
2018-01-31T14:05:55.020Z,9.29
2018-01-31T14:07:12.098Z,9.29
2018-01-31T14:08:29.611Z,9.24
2018-01-31T14:09:46.602Z,9.28
2018-01-31T14:11:12.275Z,9.25
2018-01-31T14:12:42.020Z,9.27
2018-01-31T14:13:58.945Z,9.20
2018-01-31T14:15:15.741Z,9.20
2018-01-31T14:16:32.848Z,9.15
2018-01-31T14:17:50.107Z,9.15
2018-01-31T14:19:06.784Z,9.23
2018-01-31T14:22:06.400Z,9.28
2018-01-31T14:25:20.884Z,9.24
2018-01-31T14:26:48.485Z,9.27
2018-01-31T14:28:05.637Z,9.28
2018-01-31T14:29:22.353Z,9.26
2018-01-31T14:30:39.168Z,9.34
2018-01-31T14:31:55.821Z,9.31
2018-01-31T14:33:12.679Z,9.31
2018-01-31T14:34:29.890Z,9.26
2018-01-31T14:35:46.622Z,9.24
2018-01-31T14:36:51.000Z,9.20
2018-01-31T14:37:55.388Z,9.22
2018-01-31T14:38:59.828Z,9.19
2018-01-31T14:40:04.207Z,9.19
2018-01-31T14:41:08.704Z,9.20
2018-01-31T14:42:13.135Z,9.21
2018-01-31T14:43:17.808Z,9.28
2018-01-31T14:44:22.408Z,9.19
2018-01-31T14:45:26.797Z,9.25
2018-01-31T14:46:31.161Z,9.24
2018-01-31T14:47:35.591Z,9.24
2018-01-31T14:48:40.256Z,9.25
2018-01-31T14:49:44.634Z,9.17
2018-01-31T14:50:54.252Z,9.17
2018-01-31T14:51:58.604Z,9.24
2018-01-31T14:53:03.756Z,9.25
2018-01-31T14:54:08.185Z,9.22
2018-01-31T14:55:12.704Z,9.24
2018-01-31T14:56:17.090Z,9.26
2018-01-31T14:57:21.467Z,9.21
2018-01-31T14:58:25.824Z,9.20
2018-01-31T14:59:30.188Z,9.27
2018-01-31T15:00:34.456Z,9.25
2018-01-31T15:01:38.875Z,9.23
2018-01-31T15:02:44.148Z,9.24
2018-01-31T15:03:48.504Z,9.26
2018-01-31T15:04:52.879Z,9.27
2018-01-31T15:05:57.224Z,9.27
2018-01-31T15:07:01.636Z,9.35
2018-01-31T15:08:06.004Z,9.31
2018-01-31T15:09:10.448Z,9.28
2018-01-31T15:10:14.866Z,9.26
2018-01-31T15:11:19.252Z,9.28
2018-01-31T15:12:23.611Z,9.29
2018-01-31T15:13:28.052Z,9.26
2018-01-31T15:14:32.312Z,9.21
2018-01-31T15:15:37.104Z,9.22
2018-01-31T15:16:41.508Z,9.29
2018-01-31T15:17:45.910Z,9.31
2018-01-31T15:18:50.341Z,9.23
2018-01-31T15:19:54.702Z,9.21
2018-01-31T15:20:59.150Z,9.26
2018-01-31T15:22:03.665Z,9.20
2018-01-31T15:23:08.096Z,9.20
2018-01-31T15:24:12.501Z,9.16
2018-01-31T15:25:16.874Z,9.21
2018-01-31T15:26:21.222Z,9.20
2018-01-31T15:27:25.623Z,9.19
2018-01-31T15:28:30.049Z,9.17
2018-01-31T15:29:35.007Z,9.22
2018-01-31T15:30:39.385Z,9.23
2018-01-31T15:31:43.805Z,9.30
2018-01-31T15:32:48.292Z,9.30
2018-01-31T15:33:52.737Z,9.22
2018-01-31T15:34:57.139Z,9.24
2018-01-31T15:36:01.523Z,9.19
2018-01-31T15:37:05.892Z,9.19
2018-01-31T15:38:10.367Z,9.18
2018-01-31T15:39:14.736Z,9.17
2018-01-31T15:40:21.139Z,9.16
2018-01-31T15:41:25.507Z,9.17
2018-01-31T15:42:29.881Z,9.14
2018-01-31T15:43:34.232Z,9.13
2018-01-31T15:44:38.700Z,9.11
2018-01-31T15:45:43.068Z,9.16
2018-01-31T15:46:47.465Z,9.18
2018-01-31T15:47:51.852Z,9.09
2018-01-31T15:48:56.239Z,9.11
2018-01-31T15:50:00.619Z,9.10
2018-01-31T15:51:05.055Z,9.09
2018-01-31T15:52:09.551Z,9.10
2018-01-31T15:53:14.015Z,9.06
2018-01-31T15:54:18.407Z,9.10
2018-01-31T15:55:22.836Z,9.02
2018-01-31T15:56:27.216Z,8.98
2018-01-31T15:57:31.638Z,9.01
2018-01-31T15:58:36.056Z,9.02
2018-01-31T15:59:40.545Z,9.07
2018-01-31T16:00:44.963Z,9.08
2018-01-31T16:01:49.384Z,9.00
2018-01-31T16:02:53.792Z,9.00
2018-01-31T16:03:58.263Z,9.05
2018-01-31T16:05:02.903Z,9.11
2018-01-31T16:06:07.585Z,8.99
2018-01-31T16:07:11.977Z,9.01
2018-01-31T16:08:16.364Z,9.08
2018-01-31T16:09:21.844Z,9.09
2018-01-31T16:10:26.705Z,9.06
2018-01-31T16:11:31.113Z,9.02
2018-01-31T16:12:35.519Z,9.02
2018-01-31T16:13:39.901Z,9.01
2018-01-31T16:14:44.335Z,8.93
2018-01-31T16:15:48.726Z,8.96
2018-01-31T16:16:54.042Z,8.94
2018-01-31T16:17:59.701Z,8.94
2018-01-31T16:19:16.740Z,8.91
2018-01-31T16:20:33.320Z,8.86
2018-01-31T16:21:38.925Z,8.99
2018-01-31T16:22:45.292Z,9.02
2018-01-31T16:23:52.123Z,9.03
2018-01-31T16:25:00.447Z,9.01
2018-01-31T16:26:08.043Z,9.01
2018-01-31T16:27:25.658Z,8.93
2018-01-31T16:28:45.939Z,8.87
2018-01-31T16:30:06.065Z,8.88
2018-01-31T16:31:13.533Z,8.87
2018-01-31T16:33:57.914Z,8.93
2018-01-31T16:35:05.252Z,8.91
2018-01-31T16:36:11.274Z,8.91
2018-01-31T16:37:17.762Z,8.90
2018-01-31T16:38:24.318Z,8.90
2018-01-31T16:39:30.977Z,8.91
2018-01-31T16:40:38.444Z,8.97
2018-01-31T16:41:45.687Z,8.95
2018-01-31T16:42:52.985Z,9.00
2018-01-31T16:43:59.370Z,9.02
2018-01-31T16:45:05.446Z,8.91
2018-01-31T16:46:11.752Z,8.91
2018-01-31T16:47:18.382Z,8.95
2018-01-31T16:48:25.939Z,8.95
2018-01-31T16:49:33.784Z,8.96
2018-01-31T16:50:40.402Z,8.95
2018-01-31T16:51:49.159Z,8.97
2018-01-31T16:52:56.010Z,8.98
2018-01-31T16:54:02.800Z,9.03
2018-01-31T16:55:09.613Z,9.04
2018-01-31T16:56:18.377Z,9.06
2018-01-31T16:57:25.604Z,9.00
2018-01-31T16:58:32.716Z,9.05
2018-01-31T16:59:39.743Z,9.08
2018-01-31T17:00:47.242Z,9.15
2018-01-31T17:01:53.997Z,9.13
2018-01-31T17:03:00.627Z,9.03
2018-01-31T17:04:08.191Z,8.98
2018-01-31T17:05:15.795Z,8.97
2018-01-31T17:06:21.894Z,9.01
2018-01-31T17:07:28.174Z,8.98